ADDS METAR Data INFO
IDs: Format: Raw Decoded Include TAF

Data at: 1749 UTC 21 Oct 2017

KPTK 211653Z 18006KT 10SM SCT160 OVC250 20/12 A3020 RMK AO2 SLP224 T02000122
KPTK 211553Z 18009KT 10SM FEW090 SCT160 OVC250 19/12 A3021 RMK AO2 SLP228 T01890117
KPTK 211453Z 19006KT 10SM SCT160 BKN250 17/11 A3021 RMK AO2 SLP231 T01670111 50004
KPTK 211353Z 21005KT 9SM FEW160 BKN250 14/11 A3021 RMK AO2 SLP230 T01440111
KPTK 211253Z 00000KT 8SM FEW160 BKN250 12/10 A3021 RMK AO2 SLP229 T01220100
KPTK 211153Z 16003KT 9SM BKN250 12/09 A3020 RMK AO2 SLP226 T01170094 10117 20089 51009
KPTK 211053Z 19004KT 10SM BKN250 11/09 A3019 RMK AO2 SLP225 T01110089
KPTK 210953Z 00000KT 10SM BKN250 10/09 A3018 RMK AO2 SLP219 T01000089
KPTK 210853Z AUTO 16003KT 10SM CLR 10/08 A3017 RMK AO2 SLP215 T01000083 53004
KPTK 210753Z AUTO 00000KT 10SM CLR 11/08 A3016 RMK AO2 SLP213 T01060083
KPTK 210653Z AUTO 00000KT 10SM CLR 09/08 A3016 RMK AO2 SLP211 T00940083
KPTK 210553Z AUTO 00000KT 10SM CLR 11/08 A3016 RMK AO2 SLP212 T01060083 10167 20100 51005
KPTK 210453Z AUTO 00000KT 10SM CLR 11/08 A3016 RMK AO2 SLP211 T01060078 402220039
KPTK 210353Z 00000KT 10SM SCT200 11/08 A3015 RMK AO2 SLP211 LAST T01110078
KPTK 210253Z 00000KT 10SM FEW200 12/08 A3014 RMK AO2 SLP208 T01220078 55001
KPTK 210153Z 16003KT 10SM SCT200 15/08 A3014 RMK AO2 SLP207 T01500078
KPTK 210053Z 17003KT 10SM SCT200 16/08 A3014 RMK AO2 SLP209 T01560078
KPTK 202353Z 16005KT 10SM BKN200 17/09 A3015 RMK AO2 SLP211 T01670089 10222 20167 55002
KPTK 202253Z 17006KT 10SM FEW200 BKN250 18/09 A3014 RMK AO2 SLP210 T01780089
KPTK 202153Z 14007KT 10SM FEW200 BKN250 20/07 A3015 RMK AO2 SLP209 T02000072
KPTK 202053Z 18006KT 10SM BKN250 22/08 A3015 RMK AO2 SLP211 T02220078 56018
KPTK 201953Z 19008KT 10SM SCT250 22/08 A3016 RMK AO2 SLP215 T02170078
KPTK 201853Z 20008KT 10SM SCT250 21/07 A3019 RMK AO2 SLP222 T02110072
KPTK 201753Z 19009KT 10SM FEW200 FEW250 20/06 A3021 RMK AO2 SLP229 T02000056 10206 20044 58019
KPTK 201653Z 17007KT 10SM FEW250 19/04 A3024 RMK AO2 SLP239 T01890044
KPTK 201553Z 17009KT 10SM SCT250 18/02 A3025 RMK AO2 SLP243 T01780017
KPTK 201453Z 19006KT 10SM FEW200 BKN250 15/01 A3027 RMK AO2 SLP251 T01500011 50009
KPTK 201353Z 16005KT 10SM FEW200 BKN250 12/02 A3027 RMK AO2 SLP252 T01170022
KPTK 201253Z 00000KT 10SM FEW200 SCT250 07/04 A3025 RMK AO2 SLP248 T00720044
KPTK 201153Z 00000KT 10SM FEW200 FEW250 04/02 A3024 RMK AO2 SLP243 T00440022 10094 20039 51008
KPTK 201053Z 00000KT 10SM CLR 04/02 A3023 RMK AO2 SLP240 T00390017
KPTK 200953Z 00000KT 10SM CLR 05/02 A3023 RMK AO2 SLP238 T00500017
KPTK 200853Z AUTO 00000KT 10SM CLR 07/02 A3021 RMK AO2 SLP231 T00670017 53004
KPTK 200753Z AUTO 00000KT 10SM CLR 06/02 A3020 RMK AO2 SLP229 T00560022
KPTK 200653Z AUTO 24003KT 10SM CLR 08/02 A3020 RMK AO2 SLP228 T00830017
KPTK 200553Z AUTO 25003KT 10SM CLR 09/01 A3020 RMK AO2 SLP227 T00940011 10139 20083 51009